createdAt,value
2023-06-08T00:00:31.737Z,21.08
2023-06-08T00:01:36.541Z,20.50
2023-06-08T00:02:39.097Z,21.38
2023-06-08T00:03:45.051Z,20.73
2023-06-08T00:04:47.571Z,21.83
2023-06-08T00:05:51.350Z,21.52
2023-06-08T00:06:53.960Z,21.45
2023-06-08T00:07:57.871Z,20.85
2023-06-08T00:09:05.356Z,21.65
2023-06-08T00:10:10.534Z,22.23
2023-06-08T00:11:13.585Z,21.05
2023-06-08T00:12:16.239Z,21.27
2023-06-08T00:13:18.731Z,21.63
2023-06-08T00:14:20.989Z,21.13
2023-06-08T00:15:23.160Z,21.90
2023-06-08T00:16:25.521Z,20.15
2023-06-08T00:17:28.723Z,21.00
2023-06-08T00:18:37.611Z,20.08
2023-06-08T00:19:40.271Z,21.35
2023-06-08T00:20:42.665Z,21.58
2023-06-08T00:21:45.842Z,20.83
2023-06-08T00:22:49.017Z,20.25
2023-06-08T00:23:51.942Z,21.75
2023-06-08T00:24:54.372Z,21.98
2023-06-08T00:25:56.771Z,21.48
2023-06-08T00:26:58.887Z,20.92
2023-06-08T00:28:01.028Z,23.30
2023-06-08T00:29:03.757Z,22.33
2023-06-08T00:30:06.772Z,23.42
2023-06-08T00:31:09.526Z,22.52
2023-06-08T00:32:12.190Z,22.75
2023-06-08T00:33:14.416Z,24.52
2023-06-08T00:34:16.858Z,25.80
2023-06-08T00:35:19.030Z,25.27
2023-06-08T00:36:21.441Z,25.05
2023-06-08T00:37:23.586Z,25.38
2023-06-08T00:38:25.773Z,25.05
2023-06-08T00:39:27.881Z,23.83
2023-06-08T00:40:30.011Z,24.95
2023-06-08T00:41:32.211Z,22.35
2023-06-08T00:42:34.317Z,22.90
2023-06-08T00:43:36.532Z,24.23
2023-06-08T00:44:38.652Z,25.20
2023-06-08T00:45:40.936Z,24.63
2023-06-08T00:46:43.297Z,23.98
2023-06-08T00:47:45.957Z,24.88
2023-06-08T00:48:48.230Z,23.08
2023-06-08T00:49:50.828Z,23.27
2023-06-08T00:50:53.557Z,23.38
2023-06-08T00:51:55.713Z,23.17
2023-06-08T00:52:58.031Z,21.98
2023-06-08T00:54:01.951Z,21.98
2023-06-08T00:55:04.285Z,23.58
2023-06-08T00:56:07.877Z,22.17
2023-06-08T00:57:10.400Z,22.80
2023-06-08T00:58:14.633Z,23.65
2023-06-08T00:59:16.935Z,22.80
2023-06-08T01:00:19.246Z,22.38
2023-06-08T01:01:21.421Z,22.45
2023-06-08T01:02:24.854Z,23.42
2023-06-08T01:03:36.484Z,22.20
2023-06-08T01:04:40.540Z,24.02
2023-06-08T01:05:46.406Z,23.50
2023-06-08T01:06:50.248Z,25.58
2023-06-08T01:08:18.980Z,23.55
2023-06-08T01:09:31.235Z,26.25
2023-06-08T01:11:12.955Z,26.50
2023-06-08T01:12:15.017Z,25.63
2023-06-08T01:13:58.336Z,25.33
2023-06-08T01:15:32.869Z,25.50
2023-06-08T01:16:39.129Z,24.63
2023-06-08T01:17:44.219Z,26.30
2023-06-08T01:18:48.639Z,27.13
2023-06-08T01:20:25.797Z,26.25
2023-06-08T01:21:40.721Z,25.23
2023-06-08T01:23:13.497Z,24.52
2023-06-08T01:24:21.430Z,23.48
2023-06-08T01:25:29.732Z,23.65
2023-06-08T01:26:32.589Z,25.30
2023-06-08T01:27:38.352Z,24.80
2023-06-08T01:28:41.189Z,24.60
2023-06-08T01:29:45.722Z,26.23
2023-06-08T01:30:50.230Z,25.88
2023-06-08T01:32:54.607Z,23.48
2023-06-08T01:33:56.813Z,25.27
2023-06-08T01:34:59.150Z,26.38
2023-06-08T01:36:07.892Z,25.35
2023-06-08T01:37:29.212Z,26.30
2023-06-08T01:39:19.552Z,27.92
2023-06-08T01:40:33.704Z,24.27
2023-06-08T01:41:45.015Z,26.08
2023-06-08T01:43:07.116Z,25.10
2023-06-08T01:44:12.207Z,26.58
2023-06-08T01:45:22.765Z,24.95
2023-06-08T01:46:25.950Z,24.90
2023-06-08T01:47:43.062Z,25.20
2023-06-08T01:48:47.653Z,26.08
2023-06-08T01:50:52.608Z,23.70
2023-06-08T01:51:55.560Z,25.23
2023-06-08T01:52:59.526Z,24.88
2023-06-08T01:54:06.310Z,24.27
2023-06-08T01:55:18.253Z,23.48
2023-06-08T01:56:20.724Z,22.42
2023-06-08T01:57:22.884Z,23.25
2023-06-08T01:58:25.392Z,23.77
2023-06-08T01:59:27.518Z,22.75
2023-06-08T02:00:30.711Z,22.95
2023-06-08T02:01:32.902Z,23.90
2023-06-08T02:02:35.217Z,24.48
2023-06-08T02:03:37.494Z,24.10
2023-06-08T02:04:39.685Z,24.13
2023-06-08T02:05:41.825Z,24.83
2023-06-08T02:06:43.979Z,23.13
2023-06-08T02:07:46.392Z,23.27
2023-06-08T02:08:48.965Z,23.38
2023-06-08T02:09:51.074Z,23.20
2023-06-08T02:10:53.184Z,22.88
2023-06-08T02:12:08.448Z,23.45
2023-06-08T02:13:10.638Z,22.50
2023-06-08T02:14:12.792Z,21.52
2023-06-08T02:15:15.056Z,22.27
2023-06-08T02:16:20.277Z,21.67
2023-06-08T02:17:27.192Z,21.85
2023-06-08T02:18:29.347Z,23.38
2023-06-08T02:19:34.746Z,22.48
2023-06-08T02:20:37.258Z,23.35
2023-06-08T02:21:40.310Z,23.15
2023-06-08T02:22:42.480Z,23.73
2023-06-08T02:23:44.636Z,21.98
2023-06-08T02:24:46.810Z,24.23
2023-06-08T02:25:51.180Z,23.52
2023-06-08T02:26:53.806Z,24.70
2023-06-08T02:27:56.492Z,24.25
2023-06-08T02:28:58.628Z,24.77
2023-06-08T02:30:00.797Z,24.10
2023-06-08T02:31:04.682Z,24.17
2023-06-08T02:32:07.694Z,24.50
2023-06-08T02:33:09.903Z,22.45
2023-06-08T02:34:12.146Z,21.48
2023-06-08T02:35:14.391Z,23.25
2023-06-08T02:36:18.604Z,23.27
2023-06-08T02:37:21.111Z,22.60
2023-06-08T02:38:23.324Z,22.60
2023-06-08T02:39:25.459Z,21.55
2023-06-08T02:40:27.615Z,22.00
2023-06-08T02:41:29.761Z,22.88
2023-06-08T02:42:31.868Z,21.73
2023-06-08T02:43:34.024Z,21.52
2023-06-08T02:44:36.447Z,21.33
2023-06-08T02:45:41.358Z,19.80
2023-06-08T02:46:43.600Z,21.20
2023-06-08T02:47:45.748Z,21.17
2023-06-08T02:48:47.919Z,22.52
2023-06-08T02:49:50.060Z,22.13
2023-06-08T02:50:52.164Z,21.77
2023-06-08T02:51:54.294Z,23.67
2023-06-08T02:52:56.433Z,23.90
2023-06-08T02:53:58.572Z,22.13
2023-06-08T02:55:00.868Z,23.98
2023-06-08T02:56:03.395Z,23.60
2023-06-08T02:57:06.568Z,22.98
2023-06-08T02:58:10.596Z,22.73
2023-06-08T02:59:12.746Z,22.42
2023-06-08T03:00:15.303Z,21.75
2023-06-08T03:01:21.763Z,23.25
2023-06-08T03:02:24.472Z,21.92
2023-06-08T03:03:30.670Z,22.75
2023-06-08T03:04:33.031Z,21.92
2023-06-08T03:05:35.561Z,22.88
2023-06-08T03:06:37.976Z,22.40
2023-06-08T03:07:41.701Z,22.80
2023-06-08T03:08:43.962Z,23.40
2023-06-08T03:09:46.262Z,23.70
2023-06-08T03:10:48.383Z,22.38
2023-06-08T03:11:50.904Z,22.92
2023-06-08T03:12:53.045Z,22.98
2023-06-08T03:13:55.196Z,20.90
2023-06-08T03:14:57.398Z,21.65
2023-06-08T03:15:59.847Z,21.40
2023-06-08T03:17:04.031Z,21.10
2023-06-08T03:18:06.490Z,21.83
2023-06-08T03:19:08.790Z,22.08
2023-06-08T03:20:11.514Z,22.52
2023-06-08T03:21:13.884Z,22.63
2023-06-08T03:22:16.574Z,22.20
2023-06-08T03:23:21.166Z,21.63
2023-06-08T03:25:25.315Z,20.77
2023-06-08T03:26:27.582Z,22.05
2023-06-08T03:27:29.824Z,23.35
2023-06-08T03:28:31.929Z,22.67
2023-06-08T03:29:35.088Z,23.80
2023-06-08T03:30:37.239Z,23.92
2023-06-08T03:31:39.466Z,22.63
2023-06-08T03:32:43.365Z,23.27
2023-06-08T03:33:45.883Z,22.00
2023-06-08T03:34:49.645Z,21.65
2023-06-08T03:35:51.808Z,24.63
2023-06-08T03:36:55.047Z,21.17
2023-06-08T03:37:57.199Z,21.65
2023-06-08T03:38:59.388Z,21.60
2023-06-08T03:40:01.629Z,22.70
2023-06-08T03:41:03.776Z,21.30
2023-06-08T03:42:06.750Z,22.92
2023-06-08T03:43:08.900Z,22.23
2023-06-08T03:44:11.174Z,22.75
2023-06-08T03:45:13.335Z,21.80
2023-06-08T03:46:15.658Z,21.77
2023-06-08T03:47:19.377Z,24.08
2023-06-08T03:48:21.594Z,22.20
2023-06-08T03:49:26.141Z,24.30
2023-06-08T03:50:28.344Z,22.92
2023-06-08T03:51:31.453Z,21.55
2023-06-08T03:52:33.682Z,24.23
2023-06-08T03:53:35.824Z,22.33
2023-06-08T03:54:37.979Z,23.00
2023-06-08T03:55:40.170Z,23.08
2023-06-08T03:56:42.567Z,22.70
2023-06-08T03:57:44.932Z,21.40
2023-06-08T03:58:47.941Z,22.70
2023-06-08T03:59:51.302Z,22.88
2023-06-08T04:00:54.690Z,22.98
2023-06-08T04:01:56.822Z,21.33
2023-06-08T04:02:59.126Z,22.02
2023-06-08T04:04:01.341Z,22.55
2023-06-08T04:05:03.931Z,23.38
2023-06-08T04:06:10.124Z,23.60
2023-06-08T04:07:12.846Z,23.23
2023-06-08T04:08:14.984Z,23.23
2023-06-08T04:09:17.239Z,24.60
2023-06-08T04:10:19.504Z,22.90
2023-06-08T04:11:21.627Z,23.67
2023-06-08T04:12:23.810Z,23.65
2023-06-08T04:13:26.581Z,23.30
2023-06-08T04:14:28.746Z,24.05
2023-06-08T04:15:31.330Z,22.40
2023-06-08T04:16:33.541Z,23.83
2023-06-08T04:17:36.209Z,24.33
2023-06-08T04:18:43.001Z,23.60
2023-06-08T04:19:45.319Z,25.23
2023-06-08T04:20:47.580Z,22.30
2023-06-08T04:21:50.889Z,22.33
2023-06-08T04:22:53.080Z,21.77
2023-06-08T04:23:55.225Z,21.25
2023-06-08T04:24:57.386Z,22.98
2023-06-08T04:25:59.598Z,21.92
2023-06-08T04:27:02.055Z,22.27
2023-06-08T04:28:04.951Z,22.23
2023-06-08T04:29:07.225Z,21.23
2023-06-08T04:30:09.847Z,20.42
2023-06-08T04:31:11.996Z,19.50
2023-06-08T04:32:14.302Z,19.27
2023-06-08T04:33:17.505Z,21.02
2023-06-08T04:34:19.666Z,22.20
2023-06-08T04:35:22.559Z,20.73
2023-06-08T04:36:24.763Z,19.50
2023-06-08T04:37:27.662Z,20.55
2023-06-08T04:38:29.794Z,20.42
2023-06-08T04:39:33.043Z,20.45
2023-06-08T04:40:35.878Z,19.58
2023-06-08T04:41:38.083Z,19.25
2023-06-08T04:42:42.031Z,19.08
2023-06-08T04:43:45.529Z,19.40
2023-06-08T04:44:47.751Z,20.23
2023-06-08T04:46:01.989Z,18.65
2023-06-08T04:47:08.882Z,18.67
2023-06-08T04:48:12.311Z,19.25
2023-06-08T04:49:16.162Z,17.88
2023-06-08T04:50:18.462Z,19.63
2023-06-08T04:51:24.608Z,19.17
2023-06-08T04:52:27.379Z,19.60
2023-06-08T04:53:31.705Z,19.65
2023-06-08T04:54:34.830Z,19.15
2023-06-08T04:55:38.300Z,18.95
2023-06-08T04:56:42.489Z,18.75
2023-06-08T04:57:44.928Z,18.90
2023-06-08T04:58:47.109Z,18.33
2023-06-08T04:59:49.653Z,18.08
2023-06-08T05:00:52.044Z,18.90
2023-06-08T05:01:55.020Z,18.67
2023-06-08T05:02:57.456Z,21.55
2023-06-08T05:03:59.750Z,20.85
2023-06-08T05:05:01.960Z,19.92
2023-06-08T05:06:04.156Z,20.10
2023-06-08T05:07:06.914Z,18.33
2023-06-08T05:08:09.097Z,20.02
2023-06-08T05:09:13.538Z,19.10
2023-06-08T05:10:15.750Z,20.55
2023-06-08T05:11:17.900Z,18.05
2023-06-08T05:12:20.003Z,19.58
2023-06-08T05:13:22.138Z,18.00
2023-06-08T05:14:24.314Z,18.58
2023-06-08T05:15:27.690Z,19.85
2023-06-08T05:16:29.929Z,17.85
2023-06-08T05:17:32.161Z,18.15
2023-06-08T05:18:34.364Z,18.55
2023-06-08T05:19:36.539Z,18.70
2023-06-08T05:20:38.708Z,18.65
2023-06-08T05:21:41.349Z,19.05
2023-06-08T05:22:43.554Z,19.55
2023-06-08T05:23:45.844Z,19.15
2023-06-08T05:24:49.346Z,19.08
2023-06-08T05:25:53.514Z,18.15
2023-06-08T05:26:55.869Z,18.35
2023-06-08T05:27:58.305Z,18.20
2023-06-08T05:29:00.584Z,18.83
2023-06-08T05:30:02.710Z,18.50
2023-06-08T05:31:04.909Z,18.70
2023-06-08T05:32:08.036Z,18.70
2023-06-08T05:33:10.179Z,19.08
2023-06-08T05:34:12.316Z,18.83
2023-06-08T05:35:14.445Z,18.02
2023-06-08T05:36:16.686Z,18.52
2023-06-08T05:37:18.860Z,19.15
2023-06-08T05:38:21.304Z,18.92
2023-06-08T05:39:23.475Z,20.23
2023-06-08T05:40:25.832Z,19.88
2023-06-08T05:41:27.969Z,17.80
2023-06-08T05:42:30.083Z,18.63
2023-06-08T05:43:32.211Z,18.58
2023-06-08T05:44:34.414Z,18.98
2023-06-08T05:45:36.546Z,20.02
2023-06-08T05:46:38.853Z,19.92
2023-06-08T05:47:41.196Z,19.70
2023-06-08T05:48:44.268Z,18.38
2023-06-08T05:49:46.689Z,19.42
2023-06-08T05:50:48.910Z,18.65
2023-06-08T05:51:51.072Z,18.38
2023-06-08T05:52:53.208Z,21.02
2023-06-08T05:53:55.582Z,21.20
2023-06-08T05:54:58.353Z,20.08
2023-06-08T05:56:00.545Z,19.73
2023-06-08T05:57:02.888Z,20.85
2023-06-08T05:58:05.059Z,21.35
2023-06-08T05:59:07.262Z,20.30
2023-06-08T06:00:13.689Z,20.30
2023-06-08T06:01:16.465Z,20.27
2023-06-08T06:02:18.721Z,20.27
2023-06-08T06:03:21.245Z,18.40
2023-06-08T06:04:35.960Z,20.02
2023-06-08T06:05:39.382Z,20.92
2023-06-08T06:06:41.846Z,20.35
2023-06-08T06:07:43.966Z,20.00
2023-06-08T06:08:46.096Z,21.25
2023-06-08T06:09:48.217Z,19.85
2023-06-08T06:10:50.559Z,19.58
2023-06-08T06:11:52.765Z,20.10
2023-06-08T06:12:54.929Z,19.58
2023-06-08T06:13:58.757Z,19.02
2023-06-08T06:15:00.926Z,20.83
2023-06-08T06:16:03.702Z,19.70
2023-06-08T06:17:08.526Z,20.55
2023-06-08T06:18:11.189Z,21.83
2023-06-08T06:19:13.420Z,22.17
2023-06-08T06:20:17.611Z,21.42
2023-06-08T06:21:19.808Z,22.98
2023-06-08T06:22:23.064Z,22.35
2023-06-08T06:23:25.325Z,22.55
2023-06-08T06:24:27.451Z,21.02
2023-06-08T06:25:29.592Z,21.92
2023-06-08T06:26:31.742Z,19.42
2023-06-08T06:27:39.490Z,20.63
2023-06-08T06:28:49.791Z,18.98
2023-06-08T06:29:52.054Z,16.92
2023-06-08T06:30:54.289Z,17.23
2023-06-08T06:31:56.569Z,18.48
2023-06-08T06:32:58.823Z,19.35
2023-06-08T06:34:01.269Z,17.77
2023-06-08T06:35:03.563Z,18.35
2023-06-08T06:36:06.973Z,19.05
2023-06-08T06:37:09.184Z,18.42
2023-06-08T06:38:11.387Z,19.92
2023-06-08T06:39:14.273Z,19.45
2023-06-08T06:40:16.404Z,18.00
2023-06-08T06:41:18.559Z,18.10
2023-06-08T06:42:21.908Z,18.48
2023-06-08T06:43:25.275Z,18.98
2023-06-08T06:44:27.567Z,19.15
2023-06-08T06:45:29.946Z,17.88
2023-06-08T06:46:32.746Z,18.10
2023-06-08T06:47:35.024Z,19.17
2023-06-08T06:48:37.183Z,19.25
2023-06-08T06:49:39.355Z,20.05
2023-06-08T06:50:41.479Z,18.98
2023-06-08T06:51:43.618Z,19.02
2023-06-08T06:52:46.138Z,18.70
2023-06-08T06:53:48.309Z,18.67
2023-06-08T06:54:50.717Z,18.02
2023-06-08T06:55:52.862Z,19.13
2023-06-08T06:56:55.015Z,19.40
2023-06-08T06:57:57.232Z,19.67
2023-06-08T06:58:59.748Z,19.30
2023-06-08T07:00:02.488Z,18.52
2023-06-08T07:01:04.953Z,20.20
2023-06-08T07:02:07.886Z,19.08
2023-06-08T07:03:10.802Z,19.13
2023-06-08T07:04:16.243Z,20.08
2023-06-08T07:05:20.680Z,20.00
2023-06-08T07:06:25.855Z,21.15
2023-06-08T07:07:29.327Z,19.67
2023-06-08T07:08:31.449Z,21.20
2023-06-08T07:09:33.658Z,20.25
2023-06-08T07:10:37.278Z,19.80
2023-06-08T07:11:39.460Z,20.50
2023-06-08T07:12:41.672Z,20.65
2023-06-08T07:13:43.808Z,21.60
2023-06-08T07:14:46.022Z,19.40
2023-06-08T07:15:48.218Z,19.35
2023-06-08T07:16:50.576Z,18.48
2023-06-08T07:17:52.752Z,19.67
2023-06-08T07:18:54.934Z,19.45
2023-06-08T07:19:58.848Z,20.65
2023-06-08T07:21:01.414Z,21.83
2023-06-08T07:22:07.567Z,19.13
2023-06-08T07:23:35.731Z,19.70
2023-06-08T07:25:27.053Z,21.05
2023-06-08T07:26:29.771Z,19.15
2023-06-08T07:27:26.166Z,20.42
2023-06-08T07:28:28.341Z,21.60
2023-06-08T07:29:30.602Z,21.20
2023-06-08T07:30:33.066Z,20.65
2023-06-08T07:31:35.592Z,19.08
2023-06-08T07:32:37.834Z,18.65
2023-06-08T07:33:39.988Z,20.55
2023-06-08T07:34:42.127Z,20.70
2023-06-08T07:35:47.242Z,20.83
2023-06-08T07:36:49.685Z,21.45
2023-06-08T07:37:55.206Z,20.48
2023-06-08T07:38:58.069Z,19.10
2023-06-08T07:40:00.422Z,20.02
2023-06-08T07:41:02.587Z,18.67
2023-06-08T07:42:05.024Z,18.98
2023-06-08T07:43:07.151Z,19.38
2023-06-08T07:44:09.286Z,18.98
2023-06-08T07:45:15.111Z,20.15
2023-06-08T07:46:17.372Z,19.23
2023-06-08T07:47:19.565Z,19.83
2023-06-08T07:48:21.747Z,18.92
2023-06-08T07:49:25.163Z,20.92
2023-06-08T07:50:27.386Z,18.85
2023-06-08T07:51:29.522Z,18.63
2023-06-08T07:52:31.704Z,18.67
2023-06-08T07:53:37.698Z,18.80
2023-06-08T07:54:39.845Z,18.70
2023-06-08T07:55:42.022Z,17.90
2023-06-08T07:56:44.366Z,18.20
2023-06-08T07:57:46.622Z,17.98
2023-06-08T07:58:49.530Z,19.50
2023-06-08T07:59:51.968Z,19.10
2023-06-08T08:00:54.106Z,18.95
2023-06-08T08:01:56.312Z,20.13
2023-06-08T08:02:58.827Z,20.33
2023-06-08T08:04:01.168Z,19.65
2023-06-08T08:05:04.091Z,19.80
2023-06-08T08:06:07.325Z,20.63
2023-06-08T08:07:09.592Z,20.63
2023-06-08T08:08:12.020Z,20.13
2023-06-08T08:09:14.259Z,20.50
2023-06-08T08:10:16.504Z,21.30
2023-06-08T08:11:18.687Z,19.35
2023-06-08T08:12:21.088Z,20.42
2023-06-08T08:13:23.311Z,20.25
2023-06-08T08:14:25.570Z,19.75
2023-06-08T08:15:27.964Z,21.95
2023-06-08T08:16:30.154Z,20.70
2023-06-08T08:17:32.356Z,21.05
2023-06-08T08:18:34.580Z,19.35
2023-06-08T08:19:41.216Z,21.15
2023-06-08T08:20:43.552Z,20.95
2023-06-08T08:21:45.741Z,20.52
2023-06-08T08:22:47.928Z,20.77
2023-06-08T08:23:50.091Z,21.38
2023-06-08T08:24:52.274Z,21.05
2023-06-08T08:25:54.458Z,21.58
2023-06-08T08:26:56.615Z,21.45
2023-06-08T08:27:58.944Z,21.52
2023-06-08T08:29:01.150Z,21.48
2023-06-08T08:30:03.638Z,20.40
2023-06-08T08:31:05.894Z,21.10
2023-06-08T08:32:08.248Z,21.08
2023-06-08T08:33:10.632Z,18.95
2023-06-08T08:34:13.231Z,19.08
2023-06-08T08:35:15.762Z,18.67
2023-06-08T08:36:18.528Z,20.35
2023-06-08T08:37:20.685Z,19.05
2023-06-08T08:38:22.817Z,19.50
2023-06-08T08:39:24.956Z,19.67
2023-06-08T08:40:27.125Z,19.02
2023-06-08T08:41:29.673Z,20.45
2023-06-08T08:42:32.168Z,17.63
2023-06-08T08:43:41.434Z,17.75
2023-06-08T08:44:45.388Z,18.42
2023-06-08T08:45:48.449Z,19.30
2023-06-08T08:46:51.123Z,17.70
2023-06-08T08:47:55.060Z,18.52
2023-06-08T08:49:03.314Z,17.27
2023-06-08T08:50:08.420Z,16.13
2023-06-08T08:51:20.561Z,16.42
2023-06-08T08:52:24.339Z,15.10
2023-06-08T08:53:31.786Z,15.27
2023-06-08T08:54:35.134Z,17.33
2023-06-08T08:55:37.907Z,15.75
2023-06-08T08:56:40.186Z,14.30
2023-06-08T08:57:42.802Z,15.45
2023-06-08T08:58:46.030Z,13.73
2023-06-08T08:59:48.260Z,13.45
2023-06-08T09:00:51.299Z,12.80
2023-06-08T09:01:53.605Z,12.80
2023-06-08T09:02:56.307Z,13.57
2023-06-08T09:03:59.277Z,13.82
2023-06-08T09:05:01.912Z,14.60
2023-06-08T09:06:04.202Z,14.85
2023-06-08T09:07:06.754Z,13.75
2023-06-08T09:08:08.947Z,14.23
2023-06-08T09:09:11.420Z,16.45
2023-06-08T09:10:27.401Z,15.52
2023-06-08T09:11:29.766Z,15.35
2023-06-08T09:12:41.984Z,15.50
2023-06-08T09:13:44.350Z,14.82
2023-06-08T09:14:59.057Z,16.92
2023-06-08T09:16:17.099Z,15.60
2023-06-08T09:17:38.532Z,15.38
2023-06-08T09:18:42.326Z,15.25
2023-06-08T09:19:54.434Z,14.68
2023-06-08T09:20:56.910Z,15.60
2023-06-08T09:21:59.111Z,15.05
2023-06-08T09:23:19.358Z,15.32
2023-06-08T09:24:23.490Z,15.35
2023-06-08T09:25:39.457Z,14.88
2023-06-08T09:26:48.878Z,13.48
2023-06-08T09:27:51.025Z,14.00
2023-06-08T09:28:54.324Z,13.90
2023-06-08T09:29:58.394Z,14.00
2023-06-08T09:31:10.094Z,14.73
2023-06-08T09:32:15.012Z,12.88
2023-06-08T09:33:24.602Z,12.57
2023-06-08T09:34:26.891Z,12.70
2023-06-08T09:35:29.293Z,13.90
2023-06-08T09:36:31.536Z,13.32
2023-06-08T09:37:34.909Z,14.00
2023-06-08T09:38:37.535Z,14.43
2023-06-08T09:39:44.719Z,13.20
2023-06-08T09:40:48.126Z,13.48
2023-06-08T09:41:57.338Z,13.30
2023-06-08T09:42:59.471Z,13.50
2023-06-08T09:44:04.358Z,14.07
2023-06-08T09:45:14.638Z,12.63
2023-06-08T09:46:49.290Z,13.40
2023-06-08T09:47:51.649Z,12.45
2023-06-08T09:48:54.767Z,11.15
2023-06-08T09:49:57.128Z,11.85
2023-06-08T09:51:02.570Z,12.88
2023-06-08T09:52:07.584Z,11.68
2023-06-08T09:53:10.095Z,12.43
2023-06-08T09:54:12.893Z,11.48
2023-06-08T09:55:16.507Z,11.00
2023-06-08T09:56:18.888Z,10.85
2023-06-08T09:57:21.942Z,11.02
2023-06-08T09:58:26.498Z,11.63
2023-06-08T09:59:39.405Z,10.00
2023-06-08T10:00:41.888Z,11.40
2023-06-08T10:01:54.607Z,10.50
2023-06-08T10:03:17.677Z,9.77
2023-06-08T10:04:38.071Z,9.82
2023-06-08T10:05:46.662Z,10.50
2023-06-08T10:06:52.931Z,10.13
2023-06-08T10:07:56.792Z,11.10
2023-06-08T10:09:00.824Z,11.15
2023-06-08T10:10:08.901Z,11.65
2023-06-08T10:11:12.770Z,10.23
2023-06-08T10:12:15.027Z,11.63
2023-06-08T10:13:18.070Z,11.02
2023-06-08T10:14:20.404Z,10.88
2023-06-08T10:15:23.325Z,10.57
2023-06-08T10:16:26.419Z,11.18
2023-06-08T10:17:29.624Z,10.90
2023-06-08T10:18:32.218Z,10.93
2023-06-08T10:19:36.867Z,11.45
2023-06-08T10:20:39.069Z,11.18
2023-06-08T10:21:41.496Z,10.77
2023-06-08T10:22:44.617Z,11.13
2023-06-08T10:23:47.082Z,11.57
2023-06-08T10:25:10.829Z,10.98
2023-06-08T10:26:12.854Z,10.57
2023-06-08T10:27:23.858Z,11.07
2023-06-08T10:28:26.269Z,11.07
2023-06-08T10:29:29.448Z,11.40
2023-06-08T10:30:40.489Z,10.70
2023-06-08T10:31:43.967Z,10.55
2023-06-08T10:32:46.245Z,10.43
2023-06-08T10:33:48.484Z,11.07
2023-06-08T10:34:58.195Z,10.45
2023-06-08T10:36:11.426Z,10.63
2023-06-08T10:37:29.379Z,11.52
2023-06-08T10:38:35.012Z,11.50
2023-06-08T10:39:47.960Z,11.30
2023-06-08T10:40:52.378Z,11.25
2023-06-08T10:41:56.923Z,10.68
2023-06-08T10:43:15.011Z,10.90
2023-06-08T10:45:34.740Z,10.50
2023-06-08T10:46:43.993Z,11.00
2023-06-08T10:47:47.325Z,11.98
2023-06-08T10:49:02.011Z,12.40
2023-06-08T10:50:06.374Z,11.70
2023-06-08T10:51:12.395Z,11.32
2023-06-08T10:52:24.233Z,11.10
2023-06-08T10:53:41.886Z,9.65
2023-06-08T10:54:53.431Z,9.85
2023-06-08T10:55:55.695Z,8.73
2023-06-08T10:57:16.153Z,8.55
2023-06-08T10:58:21.041Z,6.45
2023-06-08T10:59:36.713Z,6.68
2023-06-08T11:00:44.104Z,6.32
2023-06-08T11:01:48.012Z,6.13
2023-06-08T11:02:53.902Z,7.05
2023-06-08T11:03:58.652Z,7.38
2023-06-08T11:05:00.951Z,8.15
2023-06-08T11:06:13.978Z,7.53
2023-06-08T11:07:20.752Z,7.72
2023-06-08T11:08:23.456Z,8.25
2023-06-08T11:09:25.613Z,8.80
2023-06-08T11:10:29.073Z,7.93
2023-06-08T11:11:32.396Z,7.28
2023-06-08T11:12:34.622Z,7.50
2023-06-08T11:13:36.801Z,8.52
2023-06-08T11:14:38.905Z,7.70
2023-06-08T11:15:43.260Z,8.70
2023-06-08T11:17:59.704Z,9.52
2023-06-08T11:19:01.996Z,9.10
2023-06-08T11:20:06.619Z,8.50
2023-06-08T11:21:08.809Z,9.18
2023-06-08T11:22:10.968Z,8.10
2023-06-08T11:23:14.565Z,9.18
2023-06-08T11:24:17.239Z,9.43
2023-06-08T11:25:22.241Z,8.55
2023-06-08T11:26:24.474Z,9.63
2023-06-08T11:27:26.615Z,8.82
2023-06-08T11:28:29.009Z,8.57
2023-06-08T11:29:31.506Z,7.95
2023-06-08T11:30:34.801Z,8.00
2023-06-08T11:31:43.997Z,7.70
2023-06-08T11:32:50.518Z,7.63
2023-06-08T11:33:52.891Z,7.53
2023-06-08T11:34:54.999Z,7.32
2023-06-08T11:35:57.154Z,8.18
2023-06-08T11:36:59.605Z,8.32
2023-06-08T11:38:02.802Z,8.05
2023-06-08T11:39:04.918Z,7.38
2023-06-08T11:40:12.159Z,7.40
2023-06-08T11:41:15.817Z,7.57
2023-06-08T11:42:18.394Z,7.80
2023-06-08T11:43:22.454Z,8.05
2023-06-08T11:44:27.095Z,7.72
2023-06-08T11:45:29.656Z,7.97
2023-06-08T11:46:32.234Z,6.70
2023-06-08T11:47:34.788Z,7.13
2023-06-08T11:48:37.041Z,7.53
2023-06-08T11:49:52.703Z,7.97
2023-06-08T11:50:54.859Z,8.05
2023-06-08T11:51:57.007Z,8.38
2023-06-08T11:53:02.520Z,7.80
2023-06-08T11:54:04.890Z,7.88
2023-06-08T11:55:17.627Z,9.38
2023-06-08T11:56:19.791Z,8.75
2023-06-08T11:57:22.579Z,9.65
2023-06-08T11:58:26.534Z,8.35
2023-06-08T11:59:28.876Z,7.55
2023-06-08T12:00:35.424Z,8.02
2023-06-08T12:01:38.706Z,7.03
2023-06-08T12:02:41.332Z,8.00
2023-06-08T12:03:47.745Z,7.85
2023-06-08T12:04:50.166Z,8.60
2023-06-08T12:05:58.413Z,9.13
2023-06-08T12:07:14.050Z,9.07
2023-06-08T12:08:16.860Z,9.43
2023-06-08T12:09:19.034Z,8.90
2023-06-08T12:10:21.259Z,8.52
2023-06-08T12:11:25.725Z,8.55
2023-06-08T12:12:30.231Z,9.30
2023-06-08T12:13:32.644Z,8.88
2023-06-08T12:14:45.114Z,9.43
2023-06-08T12:15:49.098Z,9.80
2023-06-08T12:16:51.428Z,9.60
2023-06-08T12:17:53.705Z,9.50
2023-06-08T12:18:57.390Z,10.10
2023-06-08T12:19:59.578Z,9.32
2023-06-08T12:21:04.670Z,10.05
2023-06-08T12:22:06.882Z,9.52
2023-06-08T12:23:09.211Z,8.90
2023-06-08T12:24:11.726Z,9.35
2023-06-08T12:25:14.129Z,10.18
2023-06-08T12:26:16.580Z,9.02
2023-06-08T12:27:18.979Z,9.38
2023-06-08T12:28:24.176Z,9.20
2023-06-08T12:29:26.357Z,9.73
2023-06-08T12:30:28.646Z,10.75
2023-06-08T12:31:30.973Z,10.02
2023-06-08T12:32:33.553Z,9.20
2023-06-08T12:33:36.073Z,9.15
2023-06-08T12:34:38.287Z,8.68
2023-06-08T12:35:41.728Z,9.10
2023-06-08T12:36:43.858Z,8.40
2023-06-08T12:37:50.201Z,8.18
2023-06-08T12:38:52.388Z,7.35
2023-06-08T12:39:54.819Z,7.45
2023-06-08T12:40:57.589Z,7.45
2023-06-08T12:42:00.407Z,6.88
2023-06-08T12:43:02.771Z,7.43
2023-06-08T12:44:05.065Z,7.65
2023-06-08T12:45:08.601Z,7.80
2023-06-08T12:46:12.069Z,7.30
2023-06-08T12:47:14.607Z,7.20
2023-06-08T12:48:20.638Z,7.80
2023-06-08T12:49:24.070Z,8.25
2023-06-08T12:50:30.420Z,8.60
2023-06-08T12:51:32.664Z,7.60
2023-06-08T12:52:35.223Z,8.27
2023-06-08T12:53:37.332Z,7.75
2023-06-08T12:54:39.439Z,8.18
2023-06-08T12:55:42.878Z,8.40
2023-06-08T12:56:45.614Z,7.55
2023-06-08T12:57:49.201Z,7.53
2023-06-08T12:58:52.287Z,7.15
2023-06-08T12:59:54.386Z,8.25
2023-06-08T13:00:56.617Z,8.25
2023-06-08T13:01:58.874Z,8.15
2023-06-08T13:03:01.374Z,8.73
2023-06-08T13:04:05.244Z,8.80
2023-06-08T13:05:08.073Z,10.15
2023-06-08T13:06:10.727Z,10.10
2023-06-08T13:07:12.890Z,10.00
2023-06-08T13:08:15.157Z,10.45
2023-06-08T13:09:17.351Z,10.10
2023-06-08T13:10:19.586Z,9.68
2023-06-08T13:11:21.829Z,10.45
2023-06-08T13:12:26.178Z,9.88
2023-06-08T13:13:28.889Z,10.50
2023-06-08T13:14:34.416Z,10.07
2023-06-08T13:15:37.694Z,10.38
2023-06-08T13:16:40.015Z,10.68
2023-06-08T13:17:42.426Z,11.38
2023-06-08T13:18:44.743Z,10.20
2023-06-08T13:19:46.988Z,9.93
2023-06-08T13:20:49.585Z,11.20
2023-06-08T13:21:52.712Z,11.43
2023-06-08T13:22:54.958Z,11.73
2023-06-08T13:24:59.326Z,11.45
2023-06-08T13:26:01.795Z,12.18
2023-06-08T13:27:04.221Z,11.40
2023-06-08T13:28:08.580Z,11.25
2023-06-08T13:29:10.763Z,10.93
2023-06-08T13:30:13.261Z,10.60
2023-06-08T13:31:15.740Z,10.27
2023-06-08T13:32:18.123Z,10.52
2023-06-08T13:33:20.774Z,9.00
2023-06-08T13:34:22.984Z,9.00
2023-06-08T13:35:25.194Z,9.10
2023-06-08T13:36:30.759Z,8.60
2023-06-08T13:37:33.292Z,9.40
2023-06-08T13:38:35.428Z,8.82
2023-06-08T13:39:37.653Z,8.70
2023-06-08T13:40:40.848Z,8.95
2023-06-08T13:41:43.599Z,8.77
2023-06-08T13:42:45.797Z,7.68
2023-06-08T13:43:48.112Z,8.20
2023-06-08T13:44:52.146Z,8.10
2023-06-08T13:45:59.592Z,7.43
2023-06-08T13:47:02.066Z,7.28
2023-06-08T13:48:04.700Z,6.82
2023-06-08T13:49:07.053Z,7.88
2023-06-08T13:50:10.521Z,7.38
2023-06-08T13:51:13.940Z,7.05
2023-06-08T13:52:16.340Z,7.60
2023-06-08T13:53:19.294Z,6.93
2023-06-08T13:54:21.429Z,7.53
2023-06-08T13:55:28.251Z,7.40
2023-06-08T13:56:30.508Z,7.90
2023-06-08T13:57:32.623Z,7.43
2023-06-08T13:58:34.849Z,7.70